ZYTX/SHE METAR and TAF weather

Enter ICAO airport designator
Station Type Date Time Source
ZYTX METAR 2022/10/01 09:00 UTC NOAA

ZYTX 010900Z 05001MPS 6000 NSC 21/15 Q1017 NOSIG


Station Type Date Time Source
ZYTX Decoded METAR 2022/10/01 09:00 UTC NOAA

Shenyang / Taokian, China (ZYTX) 41-48N 123-24E
Oct 01, 2022 - 05:00 AM EDT / 2022.10.01 0900 UTC
Wind: from the NE (050 degrees) at 2 MPH (2 KT):0
Visibility: 3 mile(s):0
Temperature: 69 F (21 C)
Dew Point: 59 F (15 C)
Relative Humidity: 68%
Pressure (altimeter): 30.03 in. Hg (1017 hPa)
ob: ZYTX 010900Z 05001MPS 6000 NSC 21/15 Q1017 NOSIG
cycle: 9

Station Type Date Time Source
ZYTX TAF 2022/10/01 06:03 UTC NOAA

TAF ZYTX 010301Z 0106/0206 28003MPS 6000 BKN033 TX26/0106Z TN16/0122Z

Example: see airport list